Time;durP1;ratioP1;P1;durP2;ratioP2;P2;SDS_P1;SDS_P2;PMS_P1;PMS_P2;Temp;Humidity;BMP_temperature;BMP_pressure;BME280_temperature;BME280_humidity;BME280_pressure;Samples;Min_cycle;Max_cycle;Signal;HPM_P1;HPM_P2
2021/12/06 00:02:10;;;;;;;8.18;6.43;;;8.00;77.20;;;;;;5039185;28;20537;-87
2021/12/06 00:04:37;;;;;;;7.38;5.45;;;8.10;77.30;;;;;;5050526;28;20045;-87
2021/12/06 00:07:08;;;;;;;9.05;6.68;;;8.10;77.20;;;;;;5038513;28;20045;-87
2021/12/06 00:09:37;;;;;;;8.52;5.97;;;8.00;77.80;;;;;;5039310;28;20039;-87
2021/12/06 00:12:04;;;;;;;7.10;5.88;;;8.00;77.20;;;;;;5055372;28;20040;-88
2021/12/06 00:14:37;;;;;;;8.15;6.32;;;8.00;77.20;;;;;;5038812;28;20033;-89
2021/12/06 00:17:07;;;;;;;8.05;6.03;;;8.00;77.20;;;;;;5055306;28;20021;-88
2021/12/06 00:19:34;;;;;;;7.43;5.82;;;8.00;77.30;;;;;;5038518;28;20037;-88
2021/12/06 00:22:03;;;;;;;9.05;6.38;;;8.00;77.20;;;;;;5056017;28;20048;-88
2021/12/06 00:24:31;;;;;;;7.45;5.78;;;8.00;77.20;;;;;;5038659;28;20025;-88
2021/12/06 00:26:58;;;;;;;7.35;5.97;;;8.00;77.20;;;;;;5055985;28;20063;-87
2021/12/06 00:29:27;;;;;;;7.57;6.25;;;8.00;77.20;;;;;;5057905;28;20025;-88
2021/12/06 00:31:56;;;;;;;7.57;5.90;;;8.00;77.30;;;;;;5052250;28;20028;-89
2021/12/06 00:34:24;;;;;;;7.85;6.10;;;8.00;77.20;;;;;;5048156;28;20029;-89
2021/12/06 00:37:04;;;;;;;8.38;6.72;;;8.00;77.20;;;;;;5039404;28;20025;-88
2021/12/06 00:39:30;;;;;;;9.55;6.85;;;8.00;77.30;;;;;;5038951;28;20033;-89
2021/12/06 00:41:56;;;;;;;8.63;6.80;;;8.00;77.30;;;;;;5054904;28;20032;-88
2021/12/06 00:44:23;;;;;;;7.97;6.53;;;8.00;77.30;;;;;;5038436;28;20025;-88
2021/12/06 00:46:51;;;;;;;8.63;6.93;;;8.00;77.30;;;;;;5038563;28;20119;-88
2021/12/06 00:49:20;;;;;;;7.78;6.20;;;8.00;77.30;;;;;;5054919;28;20033;-89
2021/12/06 00:51:47;;;;;;;8.82;6.25;;;8.00;77.30;;;;;;5038648;28;20017;-88
2021/12/06 00:54:13;;;;;;;8.02;6.30;;;8.00;77.30;;;;;;5054838;28;20120;-88
2021/12/06 00:56:40;;;;;;;8.52;6.40;;;8.00;77.30;;;;;;5038364;28;20478;-87
2021/12/06 00:59:06;;;;;;;8.65;6.85;;;8.00;77.30;;;;;;5054806;28;20049;-88
2021/12/06 01:01:36;;;;;;;9.50;7.43;;;8.00;77.30;;;;;;5055559;28;20060;-88
2021/12/06 01:04:02;;;;;;;8.98;6.82;;;8.00;77.30;;;;;;5037670;28;20027;-88
2021/12/06 01:06:29;;;;;;;9.32;7.28;;;8.00;77.30;;;;;;5054411;28;20079;-88
2021/12/06 01:08:57;;;;;;;8.43;6.75;;;8.00;77.30;;;;;;5038199;28;20484;-87
2021/12/06 01:11:23;;;;;;;9.82;7.78;;;8.00;77.30;;;;;;5037661;28;20481;-88
2021/12/06 01:13:49;;;;;;;9.02;6.95;;;8.00;77.30;;;;;;5054259;28;20029;-90
2021/12/06 01:16:16;;;;;;;8.43;6.82;;;8.00;77.30;;;;;;5054104;28;20025;-88
2021/12/06 01:18:43;;;;;;;10.30;7.72;;;8.00;77.30;;;;;;5037643;28;20392;-88
2021/12/06 01:21:20;;;;;;;9.48;7.60;;;8.00;77.30;;;;;;5037445;28;20025;-88
2021/12/06 01:23:55;;;;;;;9.35;6.72;;;7.90;77.30;;;;;;5037589;28;20040;-88
2021/12/06 01:29:16;;;;;;;9.23;6.75;;;7.90;77.20;;;;;;5054988;28;19967;-88
2021/12/06 01:39:09;;;;;;;8.55;6.65;;;7.90;77.30;;;;;;5054404;28;20021;-89
2021/12/06 01:39:44;;;;;;;9.63;6.90;;;7.90;77.30;;;;;;5068259;28;20063;-83
2021/12/06 01:42:10;;;;;;;9.23;6.90;;;7.90;77.30;;;;;;5037366;28;20029;-88
2021/12/06 01:44:42;;;;;;;8.95;7.45;;;7.90;77.40;;;;;;5036981;28;20039;-88
2021/12/06 01:47:33;;;;;;;9.10;6.82;;;7.90;77.40;;;;;;5022850;28;20139;-88
2021/12/06 01:50:07;;;;;;;10.05;7.70;;;7.90;77.40;;;;;;5037521;28;20029;-88
2021/12/06 01:52:42;;;;;;;9.90;7.25;;;7.90;77.40;;;;;;5013526;28;20113;-89
2021/12/06 01:55:12;;;;;;;8.60;6.70;;;7.90;77.40;;;;;;5037501;28;20056;-88
2021/12/06 01:57:38;;;;;;;9.65;7.53;;;7.90;77.40;;;;;;5053664;28;20029;-88
2021/12/06 02:00:12;;;;;;;10.07;7.70;;;7.90;77.40;;;;;;5036740;28;20021;-88
2021/12/06 02:02:42;;;;;;;9.90;7.53;;;7.90;77.50;;;;;;5054355;28;20091;-90
2021/12/06 02:05:28;;;;;;;9.82;7.63;;;7.90;77.40;;;;;;5053964;28;20064;-88
2021/12/06 02:07:54;;;;;;;9.02;7.18;;;7.90;77.30;;;;;;5053744;28;20045;-87
2021/12/06 02:10:24;;;;;;;9.48;7.45;;;7.90;77.30;;;;;;5037344;28;20032;-88
2021/12/06 02:12:55;;;;;;;9.45;6.68;;;7.90;77.40;;;;;;5037270;28;20029;-88
2021/12/06 02:15:40;;;;;;;9.48;7.47;;;7.90;77.40;;;;;;5037500;28;20409;-88
2021/12/06 02:18:15;;;;;;;10.32;7.70;;;7.90;77.40;;;;;;5037322;28;20021;-89
2021/12/06 02:20:49;;;;;;;10.00;8.25;;;7.90;77.40;;;;;;5037009;28;20036;-90
2021/12/06 02:23:17;;;;;;;9.57;7.45;;;7.90;77.40;;;;;;5037137;28;20029;-88
2021/12/06 02:25:43;;;;;;;11.27;8.43;;;7.90;77.40;;;;;;5037123;28;20044;-89
2021/12/06 02:28:10;;;;;;;10.80;8.23;;;7.90;77.40;;;;;;5037841;28;20025;-88
2021/12/06 02:30:36;;;;;;;12.38;8.85;;;7.90;77.40;;;;;;5036560;28;20543;-88
2021/12/06 02:33:02;;;;;;;11.55;8.30;;;7.90;77.40;;;;;;5036899;28;20120;-88
2021/12/06 02:35:31;;;;;;;10.93;8.32;;;7.90;77.40;;;;;;5036845;28;20119;-88
2021/12/06 02:38:02;;;;;;;11.38;8.25;;;7.90;77.40;;;;;;5053489;28;20112;-88
2021/12/06 02:40:32;;;;;;;10.15;7.60;;;7.90;77.40;;;;;;5020631;28;20025;-88
2021/12/06 02:43:00;;;;;;;11.13;8.07;;;7.90;77.40;;;;;;5021175;28;20041;-88
2021/12/06 02:45:31;;;;;;;10.13;7.78;;;7.90;77.40;;;;;;5054521;28;20028;-92
2021/12/06 02:47:59;;;;;;;11.55;8.60;;;7.90;77.40;;;;;;5063312;28;20064;-90
2021/12/06 02:50:35;;;;;;;11.02;8.25;;;7.80;77.30;;;;;;5053880;28;20040;-89
2021/12/06 02:53:02;;;;;;;12.82;8.18;;;7.90;77.40;;;;;;5053735;28;20033;-88
2021/12/06 02:55:35;;;;;;;11.48;8.27;;;7.90;77.40;;;;;;5036396;28;20167;-92
2021/12/06 02:58:16;;;;;;;11.77;9.05;;;7.90;77.40;;;;;;5038653;28;20036;-88
2021/12/06 03:00:47;;;;;;;11.05;8.05;;;7.90;77.40;;;;;;5056610;28;20033;-90
2021/12/06 03:03:16;;;;;;;10.65;7.47;;;7.90;77.40;;;;;;5040096;28;20037;-88
2021/12/06 03:05:43;;;;;;;13.25;9.05;;;7.90;77.40;;;;;;5040099;28;20049;-90
2021/12/06 03:08:10;;;;;;;11.55;8.27;;;7.90;77.40;;;;;;5056326;28;20527;-89
2021/12/06 03:10:36;;;;;;;11.98;8.65;;;7.90;77.40;;;;;;5023906;28;20025;-89
2021/12/06 03:13:05;;;;;;;14.10;9.63;;;7.80;77.30;;;;;;5039917;28;20025;-90
2021/12/06 03:15:32;;;;;;;12.45;8.85;;;7.90;77.40;;;;;;5039210;28;20174;-92
2021/12/06 03:18:01;;;;;;;11.63;8.15;;;7.90;77.40;;;;;;5039309;28;20116;-89
2021/12/06 03:20:27;;;;;;;12.43;9.27;;;7.80;77.40;;;;;;5039571;28;20124;-88
2021/12/06 03:22:54;;;;;;;12.15;8.90;;;7.90;77.40;;;;;;5055736;28;20029;-88
2021/12/06 03:25:20;;;;;;;12.23;8.75;;;7.80;77.30;;;;;;5039618;28;20078;-88
2021/12/06 03:27:46;;;;;;;12.80;9.07;;;7.90;77.40;;;;;;5040135;28;20025;-89
2021/12/06 03:30:13;;;;;;;13.10;9.07;;;7.90;77.40;;;;;;5056162;28;20466;-88
2021/12/06 03:32:39;;;;;;;11.23;8.27;;;7.90;77.40;;;;;;5056247;28;20056;-89
2021/12/06 03:35:09;;;;;;;12.63;9.32;;;7.80;77.30;;;;;;5039520;28;20025;-88
2021/12/06 03:37:35;;;;;;;12.00;8.57;;;7.80;77.30;;;;;;5039344;28;20454;-89
2021/12/06 03:40:04;;;;;;;11.88;8.73;;;7.80;77.30;;;;;;5039412;28;20036;-88
2021/12/06 03:42:30;;;;;;;12.07;8.52;;;7.80;77.30;;;;;;5056086;28;20090;-89
2021/12/06 03:44:56;;;;;;;13.02;9.48;;;7.90;77.40;;;;;;5022948;28;20029;-89
2021/12/06 03:47:29;;;;;;;11.25;8.13;;;7.80;77.30;;;;;;5039961;28;20033;-88
2021/12/06 03:49:58;;;;;;;12.93;8.93;;;7.80;77.40;;;;;;5056324;28;20091;-88
2021/12/06 03:52:25;;;;;;;12.23;8.93;;;7.80;77.30;;;;;;5064596;28;20047;-92
2021/12/06 03:54:52;;;;;;;13.07;9.52;;;7.90;77.40;;;;;;5023690;28;20033;-87
2021/12/06 03:57:20;;;;;;;11.15;8.80;;;7.80;77.40;;;;;;5039742;28;20082;-89
2021/12/06 03:59:47;;;;;;;11.60;8.20;;;7.80;77.30;;;;;;5055936;28;20434;-89
2021/12/06 04:02:13;;;;;;;12.85;9.98;;;7.90;77.40;;;;;;5038853;28;20029;-89
2021/12/06 04:04:40;;;;;;;13.48;9.23;;;7.80;77.30;;;;;;5038916;28;20037;-88
2021/12/06 04:07:08;;;;;;;11.98;8.75;;;7.80;77.40;;;;;;5038569;28;20053;-88
2021/12/06 04:09:36;;;;;;;12.27;9.32;;;7.80;77.40;;;;;;5037924;28;20363;-93
2021/12/06 04:12:06;;;;;;;12.55;9.07;;;7.90;78.10;;;;;;5055289;28;20033;-88
2021/12/06 04:14:34;;;;;;;12.95;8.45;;;7.80;77.40;;;;;;5039202;28;20429;-88
2021/12/06 04:17:01;;;;;;;13.35;9.23;;;7.80;77.40;;;;;;5054721;28;20029;-89
2021/12/06 04:19:27;;;;;;;11.75;8.98;;;7.80;77.30;;;;;;5038425;28;20024;-88
2021/12/06 04:21:56;;;;;;;12.68;9.07;;;7.80;77.30;;;;;;5038776;28;20466;-88
2021/12/06 04:24:22;;;;;;;13.88;9.63;;;7.80;77.40;;;;;;5038424;28;20470;-88
2021/12/06 04:26:51;;;;;;;11.70;8.82;;;7.80;77.30;;;;;;5054648;28;20025;-88
2021/12/06 04:29:20;;;;;;;13.07;8.95;;;7.80;77.40;;;;;;5038715;28;20032;-89
2021/12/06 04:31:53;;;;;;;13.27;9.45;;;7.80;77.30;;;;;;5055015;28;20048;-91
2021/12/06 04:34:23;;;;;;;11.93;8.40;;;7.80;77.40;;;;;;5055185;28;20469;-91
2021/12/06 04:36:52;;;;;;;11.80;8.65;;;7.80;77.40;;;;;;5038694;28;20040;-88
2021/12/06 04:39:22;;;;;;;12.13;8.88;;;7.80;77.30;;;;;;5038949;28;20013;-88
2021/12/06 04:41:50;;;;;;;13.38;9.48;;;7.80;77.40;;;;;;5054611;28;20033;-88
2021/12/06 04:44:17;;;;;;;13.63;9.07;;;7.80;77.40;;;;;;5021710;28;20120;-87
2021/12/06 04:46:44;;;;;;;14.52;9.60;;;7.80;77.40;;;;;;5021678;28;20028;-88
2021/12/06 04:49:11;;;;;;;12.23;9.20;;;7.80;77.40;;;;;;5038057;28;20040;-89
2021/12/06 04:51:40;;;;;;;13.18;9.02;;;7.80;77.40;;;;;;5038359;28;20033;-88
2021/12/06 04:54:06;;;;;;;12.75;9.07;;;7.80;77.40;;;;;;5054303;28;20075;-88
2021/12/06 04:56:40;;;;;;;12.48;8.98;;;7.80;77.40;;;;;;5037848;28;20079;-89
2021/12/06 04:59:13;;;;;;;12.90;8.82;;;7.80;77.40;;;;;;5037788;28;20037;-88
2021/12/06 05:01:41;;;;;;;13.02;8.68;;;7.80;77.50;;;;;;5038314;28;20086;-88
2021/12/06 05:04:19;;;;;;;13.93;9.38;;;7.80;77.40;;;;;;5056659;28;20017;-90
2021/12/06 05:06:48;;;;;;;13.05;9.13;;;7.80;77.40;;;;;;5043022;28;20484;-87
2021/12/06 05:09:21;;;;;;;13.27;9.23;;;7.80;77.40;;;;;;5037996;28;20031;-88
2021/12/06 05:11:47;;;;;;;13.38;9.18;;;7.80;77.40;;;;;;5037928;28;20032;-90
2021/12/06 05:14:14;;;;;;;14.98;10.18;;;7.80;77.40;;;;;;5037913;28;20070;-88
2021/12/06 05:16:41;;;;;;;12.18;8.85;;;7.80;77.40;;;;;;5054528;28;20116;-88
2021/12/06 05:19:09;;;;;;;13.70;9.60;;;7.80;77.40;;;;;;5022060;28;20120;-88
2021/12/06 05:21:38;;;;;;;13.35;8.85;;;7.80;77.40;;;;;;5038174;28;20055;-88
2021/12/06 05:24:06;;;;;;;12.60;9.18;;;7.80;77.40;;;;;;5037611;28;20025;-88
2021/12/06 05:26:33;;;;;;;14.38;9.80;;;7.80;77.40;;;;;;5037683;28;20485;-88
2021/12/06 05:29:02;;;;;;;14.57;10.35;;;7.80;77.40;;;;;;5038684;28;20032;-88
2021/12/06 05:31:30;;;;;;;12.88;9.07;;;7.80;77.40;;;;;;5053921;28;20052;-90
2021/12/06 05:33:58;;;;;;;12.07;8.73;;;7.70;77.30;;;;;;5037874;28;20116;-87
2021/12/06 05:36:26;;;;;;;14.05;9.85;;;7.70;77.30;;;;;;5037368;28;20167;-89
2021/12/06 05:38:54;;;;;;;14.10;10.00;;;7.70;77.30;;;;;;5037238;28;20059;-88
2021/12/06 05:41:21;;;;;;;15.02;10.27;;;7.80;77.40;;;;;;5053468;28;20108;-88
2021/12/06 05:43:47;;;;;;;14.07;9.85;;;7.70;77.30;;;;;;5054823;28;20025;-84
2021/12/06 05:46:14;;;;;;;14.75;10.18;;;7.70;77.30;;;;;;5054112;28;20029;-86
2021/12/06 05:48:39;;;;;;;13.70;9.07;;;7.70;77.30;;;;;;5053248;28;20048;-84
2021/12/06 05:51:06;;;;;;;14.18;9.18;;;7.70;77.30;;;;;;5036964;28;20459;-87
2021/12/06 05:53:32;;;;;;;13.48;9.63;;;7.70;77.30;;;;;;5036763;28;20021;-88
2021/12/06 05:55:57;;;;;;;14.85;10.23;;;7.70;77.30;;;;;;5053988;28;20027;-88
2021/12/06 05:58:28;;;;;;;14.13;9.98;;;7.60;77.30;;;;;;5037156;28;20029;-88
2021/12/06 06:00:56;;;;;;;16.63;10.38;;;7.60;77.30;;;;;;5021417;28;20065;-89
2021/12/06 06:03:22;;;;;;;15.13;10.75;;;7.60;77.20;;;;;;5053703;28;20029;-88
2021/12/06 06:05:48;;;;;;;15.02;10.32;;;7.60;77.20;;;;;;5000532;28;20044;-89
2021/12/06 06:08:14;;;;;;;14.63;10.07;;;7.60;77.20;;;;;;5033162;28;20049;-87
2021/12/06 06:10:40;;;;;;;14.57;9.50;;;7.60;77.20;;;;;;5039266;28;20033;-88
2021/12/06 06:13:07;;;;;;;14.65;10.25;;;7.60;77.30;;;;;;5043644;28;20035;-87
2021/12/06 06:15:34;;;;;;;13.38;8.95;;;7.60;77.30;;;;;;5020330;28;20029;-84
2021/12/06 06:18:01;;;;;;;15.43;10.50;;;7.60;77.20;;;;;;5020278;28;20033;-87
2021/12/06 06:20:45;;;;;;;14.65;9.70;;;7.60;77.20;;;;;;5020280;28;20044;-84
2021/12/06 06:23:10;;;;;;;13.52;9.38;;;7.50;77.20;;;;;;5036653;28;20029;-85
2021/12/06 06:25:38;;;;;;;15.73;10.50;;;7.50;77.20;;;;;;5020659;28;20032;-85
2021/12/06 06:28:06;;;;;;;14.13;9.98;;;7.50;77.20;;;;;;5019974;28;20036;-85
2021/12/06 06:30:32;;;;;;;15.40;10.75;;;7.50;77.20;;;;;;5036501;28;20033;-85
2021/12/06 06:32:59;;;;;;;16.15;10.02;;;7.50;77.20;;;;;;5021552;28;20036;-85
2021/12/06 06:35:25;;;;;;;14.65;9.48;;;7.50;77.20;;;;;;5040891;28;20029;-85
2021/12/06 06:37:51;;;;;;;13.27;9.32;;;7.50;77.20;;;;;;5024507;28;20069;-86
2021/12/06 06:40:18;;;;;;;13.77;9.80;;;7.50;77.20;;;;;;5023753;28;20409;-82
2021/12/06 06:42:45;;;;;;;15.30;10.38;;;7.40;77.20;;;;;;5057371;28;20036;-85
2021/12/06 06:45:15;;;;;;;16.23;10.57;;;7.50;77.20;;;;;;5040641;28;20017;-85
2021/12/06 06:47:41;;;;;;;14.95;9.77;;;7.50;77.30;;;;;;5040506;28;20052;-86
2021/12/06 06:50:08;;;;;;;14.73;10.05;;;7.50;77.30;;;;;;5008140;28;20040;-85
2021/12/06 06:52:35;;;;;;;13.10;10.00;;;7.40;77.20;;;;;;5007603;28;20064;-86
2021/12/06 06:55:03;;;;;;;14.10;9.85;;;7.40;77.20;;;;;;5057470;28;20029;-86
2021/12/06 06:57:29;;;;;;;16.10;10.40;;;7.50;77.30;;;;;;5023576;28;20056;-85
2021/12/06 06:59:55;;;;;;;15.27;10.15;;;7.40;77.30;;;;;;5039760;28;20473;-85
2021/12/06 07:02:21;;;;;;;14.82;10.02;;;7.40;77.30;;;;;;5023491;28;20071;-86
2021/12/06 07:04:47;;;;;;;14.80;10.20;;;7.40;77.30;;;;;;5057654;28;20063;-86
2021/12/06 07:07:13;;;;;;;15.77;9.52;;;7.40;77.30;;;;;;5039608;28;20442;-86
2021/12/06 07:09:39;;;;;;;15.02;9.82;;;7.40;77.30;;;;;;5023481;28;20029;-86
2021/12/06 07:12:11;;;;;;;12.82;9.32;;;7.40;77.30;;;;;;5039586;28;20025;-86
2021/12/06 07:14:37;;;;;;;13.95;9.80;;;7.40;77.30;;;;;;5024267;28;20033;-85
2021/12/06 07:17:03;;;;;;;14.82;10.38;;;7.40;77.30;;;;;;5048388;28;20029;-86
2021/12/06 07:19:29;;;;;;;13.68;9.13;;;7.40;77.30;;;;;;5043382;28;20009;-86
2021/12/06 07:21:56;;;;;;;14.27;9.77;;;7.40;77.30;;;;;;5023818;28;20029;-85
2021/12/06 07:24:21;;;;;;;14.32;9.30;;;7.40;77.30;;;;;;5057750;28;20036;-85
2021/12/06 07:26:47;;;;;;;15.57;10.77;;;7.40;77.30;;;;;;5023891;28;20021;-84
2021/12/06 07:29:13;;;;;;;15.48;10.05;;;7.40;77.40;;;;;;5039501;28;20064;-84
2021/12/06 07:31:39;;;;;;;13.80;9.75;;;7.40;77.40;;;;;;5056946;28;20036;-84
2021/12/06 07:34:05;;;;;;;14.32;10.23;;;7.40;78.00;;;;;;5039519;28;20029;-86
2021/12/06 07:36:30;;;;;;;13.80;9.77;;;7.40;77.40;;;;;;5039842;28;20359;-84
2021/12/06 07:38:56;;;;;;;12.82;9.55;;;7.40;77.40;;;;;;5022858;28;20028;-85
2021/12/06 07:41:26;;;;;;;14.45;9.88;;;7.40;77.40;;;;;;5039135;28;20043;-83
2021/12/06 07:43:52;;;;;;;13.25;9.57;;;7.40;77.40;;;;;;5022398;28;20087;-84
2021/12/06 07:46:18;;;;;;;14.15;9.25;;;7.40;77.40;;;;;;5039134;28;20021;-85
2021/12/06 07:48:44;;;;;;;13.88;9.25;;;7.40;77.50;;;;;;5006030;28;20493;-85
2021/12/06 07:51:09;;;;;;;13.05;10.05;;;7.40;77.50;;;;;;5022757;28;20418;-84
2021/12/06 07:53:38;;;;;;;14.05;9.82;;;7.40;77.50;;;;;;5038937;28;20114;-87
2021/12/06 07:56:04;;;;;;;15.50;10.00;;;7.40;77.50;;;;;;5038965;28;20025;-87
2021/12/06 07:58:30;;;;;;;14.50;10.82;;;7.40;77.40;;;;;;5039050;28;20035;-86
2021/12/06 08:00:56;;;;;;;14.13;10.27;;;7.40;77.50;;;;;;5005886;28;20366;-89
2021/12/06 08:03:26;;;;;;;15.05;10.38;;;7.40;77.50;;;;;;5022047;28;20036;-87
2021/12/06 08:05:52;;;;;;;14.00;10.30;;;7.40;77.50;;;;;;5038743;28;20079;-88
2021/12/06 08:08:19;;;;;;;15.20;10.70;;;7.40;77.50;;;;;;4991470;28;20454;-86
2021/12/06 08:10:52;;;;;;;14.18;10.10;;;7.40;77.50;;;;;;5019031;28;20060;-89
2021/12/06 08:13:25;;;;;;;14.18;9.90;;;7.40;77.50;;;;;;5018765;28;20036;-89
2021/12/06 08:15:53;;;;;;;13.65;9.88;;;7.40;77.50;;;;;;5019063;28;20127;-90
2021/12/06 08:18:19;;;;;;;12.95;9.68;;;7.40;77.50;;;;;;5018587;28;20022;-89
2021/12/06 08:20:45;;;;;;;13.98;9.60;;;7.40;77.50;;;;;;5018566;28;20029;-89
2021/12/06 08:23:12;;;;;;;13.05;10.45;;;7.40;77.50;;;;;;5018639;28;20259;-89
2021/12/06 08:25:38;;;;;;;12.98;9.57;;;7.40;77.50;;;;;;5014631;28;20112;-89
2021/12/06 08:28:04;;;;;;;13.85;9.48;;;7.40;77.50;;;;;;5036163;28;20021;-89
2021/12/06 08:30:30;;;;;;;11.57;8.90;;;7.40;77.50;;;;;;5002740;28;20064;-89
2021/12/06 08:32:59;;;;;;;15.30;9.55;;;7.40;77.50;;;;;;5002209;28;20064;-89
2021/12/06 08:35:26;;;;;;;13.15;9.95;;;7.40;77.60;;;;;;5018046;28;20034;-88
2021/12/06 08:37:52;;;;;;;12.52;8.65;;;7.40;77.60;;;;;;5018401;28;20029;-89
2021/12/06 08:40:20;;;;;;;12.82;9.38;;;7.40;77.60;;;;;;5036024;28;20033;-88
2021/12/06 08:42:46;;;;;;;11.77;8.85;;;7.40;77.60;;;;;;5017559;28;20088;-89
2021/12/06 08:45:12;;;;;;;13.30;9.57;;;7.40;77.60;;;;;;4985446;28;20033;-88
2021/12/06 08:47:39;;;;;;;12.23;9.77;;;7.40;77.50;;;;;;5018417;28;20025;-89
2021/12/06 08:50:08;;;;;;;12.70;9.48;;;7.40;77.50;;;;;;5017776;28;20033;-89
2021/12/06 08:52:36;;;;;;;12.52;8.73;;;7.40;77.60;;;;;;5035325;28;20096;-89
2021/12/06 08:55:04;;;;;;;12.50;9.18;;;7.40;77.50;;;;;;5017672;28;20068;-90
2021/12/06 08:57:29;;;;;;;11.20;8.60;;;7.40;77.60;;;;;;5017649;28;20071;-90
2021/12/06 08:59:55;;;;;;;11.73;8.45;;;7.40;77.50;;;;;;5018053;28;20034;-90
2021/12/06 09:02:21;;;;;;;11.57;9.00;;;7.40;77.50;;;;;;5018460;28;20037;-89
2021/12/06 09:04:47;;;;;;;11.15;8.60;;;7.40;77.60;;;;;;5001513;28;20665;-89
2021/12/06 09:07:14;;;;;;;12.38;8.65;;;7.40;77.60;;;;;;5019992;28;20518;-90
2021/12/06 09:09:47;;;;;;;12.60;9.20;;;7.40;77.60;;;;;;5055179;28;20033;-89
2021/12/06 09:12:19;;;;;;;12.15;9.25;;;7.40;77.60;;;;;;5054971;28;20074;-89
2021/12/06 09:14:45;;;;;;;10.38;7.75;;;7.40;77.60;;;;;;5055103;28;20020;-90
2021/12/06 09:17:12;;;;;;;13.05;9.43;;;7.40;77.60;;;;;;5037272;28;20389;-90
2021/12/06 09:19:38;;;;;;;13.07;8.88;;;7.40;77.60;;;;;;5036875;28;20056;-88
2021/12/06 09:22:05;;;;;;;13.40;9.50;;;7.40;77.60;;;;;;5021274;28;20461;-89
2021/12/06 09:24:32;;;;;;;11.07;8.52;;;7.40;77.60;;;;;;5054031;28;20021;-91
2021/12/06 09:26:58;;;;;;;10.40;8.02;;;7.40;77.60;;;;;;5038847;28;20029;-96
2021/12/06 09:29:24;;;;;;;11.70;8.70;;;7.40;77.60;;;;;;5037886;28;20036;-90
2021/12/06 09:31:53;;;;;;;12.48;8.63;;;7.40;77.60;;;;;;5037437;28;20029;-89
2021/12/06 09:34:19;;;;;;;12.02;9.05;;;7.40;77.60;;;;;;5040876;28;20092;-91
2021/12/06 09:36:46;;;;;;;10.48;8.18;;;7.40;77.60;;;;;;5071104;28;20051;-90
2021/12/06 09:39:13;;;;;;;11.13;8.10;;;7.40;77.60;;;;;;5053895;28;20112;-90
2021/12/06 09:41:40;;;;;;;10.90;8.20;;;7.40;77.60;;;;;;5036686;28;20068;-90
2021/12/06 09:44:09;;;;;;;11.68;8.48;;;7.40;77.60;;;;;;5037088;28;20048;-89
2021/12/06 09:46:36;;;;;;;10.75;8.15;;;7.50;77.60;;;;;;5055018;28;20450;-89
2021/12/06 09:49:14;;;;;;;10.75;8.75;;;7.40;77.60;;;;;;5021639;28;20033;-89
2021/12/06 09:51:44;;;;;;;10.43;8.30;;;7.40;77.70;;;;;;5036919;28;20048;-91
2021/12/06 09:54:11;;;;;;;11.60;8.35;;;7.40;77.60;;;;;;5037201;28;20083;-90
2021/12/06 09:56:40;;;;;;;10.15;7.88;;;7.40;77.60;;;;;;5020603;28;20037;-89
2021/12/06 09:59:10;;;;;;;10.68;7.85;;;7.40;78.30;;;;;;5053408;28;20055;-90
2021/12/06 10:01:45;;;;;;;11.93;9.13;;;7.40;77.60;;;;;;5054036;28;20040;-88
2021/12/06 10:04:14;;;;;;;10.80;8.23;;;7.40;77.60;;;;;;5053415;28;20128;-90
2021/12/06 10:06:40;;;;;;;11.35;8.05;;;7.50;77.70;;;;;;5053487;28;20025;-90
2021/12/06 10:09:11;;;;;;;11.02;8.25;;;7.50;77.70;;;;;;5056970;28;20045;-88
2021/12/06 10:11:37;;;;;;;11.75;8.52;;;7.40;77.60;;;;;;5057348;28;20051;-88
2021/12/06 10:14:04;;;;;;;11.00;8.38;;;7.50;77.70;;;;;;5040876;28;20036;-88
2021/12/06 10:16:31;;;;;;;10.57;8.38;;;7.50;77.70;;;;;;5024311;28;20033;-89
2021/12/06 10:18:58;;;;;;;10.98;7.95;;;7.50;77.70;;;;;;5057125;28;20029;-89
2021/12/06 10:21:27;;;;;;;12.85;9.52;;;7.50;77.70;;;;;;5058179;28;20483;-88
2021/12/06 10:23:57;;;;;;;11.18;8.10;;;7.50;77.70;;;;;;5057360;28;20100;-90
2021/12/06 10:26:28;;;;;;;11.55;8.55;;;7.40;77.60;;;;;;5058344;28;20024;-85
2021/12/06 10:29:01;;;;;;;11.57;8.93;;;7.40;78.20;;;;;;5041031;28;20048;-86
2021/12/06 10:31:29;;;;;;;11.98;8.27;;;7.40;77.60;;;;;;5057276;28;20033;-86
2021/12/06 10:33:55;;;;;;;11.23;8.93;;;7.50;77.70;;;;;;5057536;28;20021;-86
2021/12/06 10:36:26;;;;;;;10.27;8.35;;;7.50;77.70;;;;;;5057087;28;20032;-86
2021/12/06 10:38:54;;;;;;;12.32;9.25;;;7.50;77.70;;;;;;5057601;28;20036;-86
2021/12/06 10:41:29;;;;;;;10.35;8.52;;;7.50;77.70;;;;;;5069043;28;20048;-87
2021/12/06 10:44:03;;;;;;;12.25;8.73;;;7.50;77.70;;;;;;5055889;28;20029;-86
2021/12/06 10:46:30;;;;;;;10.90;8.68;;;7.50;77.70;;;;;;5041662;28;20036;-87
2021/12/06 10:48:59;;;;;;;11.57;8.57;;;7.50;77.70;;;;;;5040393;28;20032;-87
2021/12/06 10:51:26;;;;;;;12.18;8.98;;;7.50;77.70;;;;;;5040257;28;20025;-86
2021/12/06 10:54:01;;;;;;;11.65;8.35;;;7.50;77.70;;;;;;5040108;28;20075;-85
2021/12/06 10:56:43;;;;;;;12.02;8.55;;;7.50;77.70;;;;;;5056594;28;20029;-85
2021/12/06 10:59:17;;;;;;;13.25;9.30;;;7.50;77.70;;;;;;5056939;28;20029;-92
2021/12/06 11:01:43;;;;;;;10.60;8.27;;;7.50;77.70;;;;;;5056646;28;20035;-89
2021/12/06 11:04:11;;;;;;;10.68;7.85;;;7.50;77.70;;;;;;5023534;28;20482;-88
2021/12/06 11:06:44;;;;;;;11.77;8.90;;;7.50;77.70;;;;;;5023192;28;20029;-88
2021/12/06 11:09:38;;;;;;;10.52;8.27;;;7.50;77.70;;;;;;5056629;28;20029;-89
2021/12/06 11:12:06;;;;;;;10.95;8.82;;;7.50;77.90;;;;;;5037266;28;20064;-88
2021/12/06 11:14:39;;;;;;;12.48;8.80;;;7.60;77.80;;;;;;5039594;28;20056;-89
2021/12/06 11:17:08;;;;;;;12.10;8.98;;;7.50;77.70;;;;;;5056818;28;20033;-85
2021/12/06 11:19:35;;;;;;;10.85;8.43;;;7.60;77.80;;;;;;5039454;28;20070;-88
2021/12/06 11:22:19;;;;;;;12.10;9.52;;;7.60;77.80;;;;;;5056113;28;20037;-87
2021/12/06 11:24:51;;;;;;;11.95;8.77;;;7.60;77.90;;;;;;5040069;28;20029;-94
2021/12/06 11:27:22;;;;;;;11.90;9.27;;;7.50;77.70;;;;;;5057190;28;20033;-88
2021/12/06 11:29:52;;;;;;;12.15;8.85;;;7.60;77.80;;;;;;5056948;28;20096;-90
2021/12/06 11:32:27;;;;;;;11.50;8.95;;;7.60;77.80;;;;;;5056058;28;20108;-86
2021/12/06 11:35:04;;;;;;;11.90;8.75;;;7.60;77.80;;;;;;5056113;28;20029;-89
2021/12/06 11:37:42;;;;;;;10.70;8.35;;;7.60;77.80;;;;;;5040083;28;20028;-86
2021/12/06 11:40:29;;;;;;;11.05;8.73;;;7.60;77.80;;;;;;5039057;28;20029;-84
2021/12/06 11:43:02;;;;;;;11.80;9.15;;;7.60;77.90;;;;;;5022695;28;20033;-84
2021/12/06 11:45:52;;;;;;;11.95;8.90;;;7.60;77.80;;;;;;5039920;28;20036;-84
2021/12/06 11:48:27;;;;;;;11.25;8.13;;;7.60;77.90;;;;;;5059780;28;20033;-85
2021/12/06 11:50:57;;;;;;;12.23;9.13;;;7.60;77.70;;;;;;5047357;28;20029;-83
2021/12/06 11:53:49;;;;;;;11.68;9.07;;;7.60;77.80;;;;;;5039084;28;20032;-85
2021/12/06 11:56:19;;;;;;;10.30;8.38;;;7.60;77.80;;;;;;5039304;28;20021;-83
2021/12/06 11:58:52;;;;;;;11.38;8.70;;;7.70;77.80;;;;;;5039315;28;20125;-84
2021/12/06 12:01:30;;;;;;;11.35;8.32;;;7.60;77.80;;;;;;5056288;28;20041;-88
2021/12/06 12:04:16;;;;;;;12.10;8.35;;;7.60;77.80;;;;;;5055837;28;20052;-90
2021/12/06 12:07:09;;;;;;;11.60;7.97;;;7.70;77.80;;;;;;5055365;28;20064;-93
2021/12/06 12:09:37;;;;;;;10.43;8.07;;;7.70;77.90;;;;;;5009486;28;20053;-85
2021/12/06 12:12:22;;;;;;;12.15;8.52;;;7.70;77.70;;;;;;5022096;28;20067;-86
2021/12/06 12:14:49;;;;;;;11.18;8.10;;;7.70;77.80;;;;;;5038775;28;20028;-85
2021/12/06 12:17:28;;;;;;;11.45;7.60;;;7.70;77.80;;;;;;5038620;28;20036;-87
2021/12/06 12:19:56;;;;;;;12.13;8.57;;;7.70;77.80;;;;;;5056591;28;20032;-86
2021/12/06 12:22:24;;;;;;;11.35;7.97;;;7.70;77.80;;;;;;5038306;28;20029;-86
2021/12/06 12:24:54;;;;;;;11.93;8.27;;;7.70;77.80;;;;;;5022162;28;20025;-87
2021/12/06 12:27:28;;;;;;;12.15;8.45;;;7.70;77.80;;;;;;5038739;28;20039;-87
2021/12/06 12:29:59;;;;;;;10.98;8.10;;;7.70;77.70;;;;;;5021899;28;20087;-87
2021/12/06 12:32:26;;;;;;;10.98;7.75;;;7.70;78.30;;;;;;5005945;28;20036;-87
2021/12/06 12:34:54;;;;;;;11.65;8.65;;;7.70;77.70;;;;;;5055590;28;20029;-86
2021/12/06 12:37:22;;;;;;;11.75;8.20;;;7.70;77.70;;;;;;5021795;28;20029;-87
2021/12/06 12:40:06;;;;;;;11.73;8.52;;;7.80;77.80;;;;;;5021580;28;20104;-87
2021/12/06 12:42:33;;;;;;;12.73;8.38;;;7.70;77.80;;;;;;5038092;28;20063;-87
2021/12/06 12:45:00;;;;;;;10.85;7.85;;;7.70;77.60;;;;;;5038047;28;20049;-86
2021/12/06 12:47:29;;;;;;;10.68;7.22;;;7.80;77.70;;;;;;5021324;28;20039;-87
2021/12/06 12:50:01;;;;;;;12.32;7.50;;;7.80;77.80;;;;;;5021649;28;20025;-87
2021/12/06 12:52:44;;;;;;;10.48;7.50;;;7.80;77.80;;;;;;5022341;28;20025;-86
2021/12/06 12:55:28;;;;;;;11.75;7.85;;;7.80;77.80;;;;;;5039309;28;20025;-87
2021/12/06 12:58:20;;;;;;;9.38;7.20;;;7.80;77.80;;;;;;5037026;28;20025;-86
2021/12/06 13:00:53;;;;;;;10.93;7.65;;;7.80;77.90;;;;;;5045023;28;20029;-88
2021/12/06 13:03:33;;;;;;;9.85;7.50;;;7.80;77.80;;;;;;5038355;28;20114;-88
2021/12/06 13:06:17;;;;;;;10.38;7.32;;;7.80;77.80;;;;;;5038069;28;20470;-86
2021/12/06 13:08:44;;;;;;;10.40;7.23;;;7.80;77.80;;;;;;5037702;28;20049;-86